Time;durP1;ratioP1;P1;durP2;ratioP2;P2;SDS_P1;SDS_P2;PMS_P1;PMS_P2;Temp;Humidity;BMP_temperature;BMP_pressure;BME280_temperature;BME280_humidity;BME280_pressure;Samples;Min_cycle;Max_cycle;Signal;HPM_P1;HPM_P2
2021/04/04 00:01:29;;;;;;;14.10;3.55;;;7.20;81.40;;;;;;5064667;28;20040;-38
2021/04/04 00:04:01;;;;;;;12.90;3.67;;;7.20;81.40;;;;;;5063920;28;20032;-37
2021/04/04 00:06:26;;;;;;;16.00;3.55;;;7.20;81.40;;;;;;5064357;28;20051;-40
2021/04/04 00:08:52;;;;;;;17.95;4.35;;;7.20;81.40;;;;;;5064327;28;20067;-41
2021/04/04 00:11:18;;;;;;;17.58;3.58;;;7.20;81.40;;;;;;5064037;28;20036;-35
2021/04/04 00:13:43;;;;;;;15.57;3.28;;;7.20;81.40;;;;;;5064524;28;20127;-38
2021/04/04 00:16:09;;;;;;;16.45;3.83;;;7.20;81.50;;;;;;5063483;28;20424;-38
2021/04/04 00:18:35;;;;;;;14.40;4.18;;;7.20;81.60;;;;;;5064435;28;20067;-37
2021/04/04 00:21:02;;;;;;;16.75;3.35;;;7.20;81.80;;;;;;5064336;28;20055;-39
2021/04/04 00:23:27;;;;;;;13.35;3.33;;;7.10;81.70;;;;;;5063382;28;20616;-37
2021/04/04 00:25:53;;;;;;;17.15;3.45;;;7.10;81.80;;;;;;5064680;28;20035;-36
2021/04/04 00:28:18;;;;;;;19.30;3.90;;;7.20;81.90;;;;;;5064386;28;20029;-38
2021/04/04 00:30:44;;;;;;;15.93;3.17;;;7.20;82.00;;;;;;5063675;28;20131;-37
2021/04/04 00:33:10;;;;;;;13.50;3.30;;;7.10;82.00;;;;;;5064064;28;20029;-35
2021/04/04 00:35:35;;;;;;;14.18;4.05;;;7.10;82.00;;;;;;5064272;28;20110;-36
2021/04/04 00:38:01;;;;;;;20.08;4.43;;;7.10;82.10;;;;;;5063499;28;20508;-38
2021/04/04 00:40:29;;;;;;;13.55;3.42;;;7.10;82.30;;;;;;5064094;28;20399;-36
2021/04/04 00:42:56;;;;;;;13.10;3.17;;;7.10;82.30;;;;;;5063699;28;20043;-36
2021/04/04 00:45:27;;;;;;;15.90;3.03;;;7.10;82.30;;;;;;5064276;28;20115;-38
2021/04/04 00:47:53;;;;;;;13.82;3.78;;;7.10;82.40;;;;;;5064076;28;20029;-36
2021/04/04 00:50:22;;;;;;;11.85;2.92;;;7.10;82.30;;;;;;5064676;28;20021;-37
2021/04/04 00:52:48;;;;;;;11.57;3.35;;;7.10;82.30;;;;;;5063252;28;20028;-36
2021/04/04 00:55:15;;;;;;;11.38;3.58;;;7.20;82.40;;;;;;5053407;28;20039;-37
2021/04/04 00:57:41;;;;;;;8.90;2.38;;;7.20;82.40;;;;;;5063592;28;20029;-42
2021/04/04 01:00:20;;;;;;;9.25;2.78;;;7.20;82.40;;;;;;5063717;28;20220;-36
2021/04/04 01:02:50;;;;;;;8.70;2.53;;;7.20;82.50;;;;;;5063907;28;20106;-35
2021/04/04 01:05:22;;;;;;;11.82;2.38;;;7.20;82.40;;;;;;5063605;28;20512;-36
2021/04/04 01:07:48;;;;;;;11.32;2.33;;;7.20;82.50;;;;;;5063224;28;20448;-36
2021/04/04 01:10:15;;;;;;;13.95;2.92;;;7.20;82.50;;;;;;5063682;28;20071;-37
2021/04/04 01:13:17;;;;;;;11.63;3.13;;;7.20;82.60;;;;;;5063669;28;20050;-39
2021/04/04 01:15:51;;;;;;;10.35;2.67;;;7.20;82.70;;;;;;5063875;28;20115;-36
2021/04/04 01:18:30;;;;;;;11.13;2.75;;;7.20;82.70;;;;;;5063641;28;20071;-39
2021/04/04 01:20:59;;;;;;;15.10;3.13;;;7.20;82.80;;;;;;5062825;28;20056;-38
2021/04/04 01:23:34;;;;;;;13.10;2.92;;;7.10;82.80;;;;;;5063525;28;20465;-38
2021/04/04 01:26:14;;;;;;;18.65;3.42;;;7.10;82.90;;;;;;5063017;28;20032;-37
2021/04/04 01:28:43;;;;;;;17.00;4.32;;;7.10;83.00;;;;;;5058858;28;20029;-37
2021/04/04 01:31:09;;;;;;;15.48;3.30;;;7.10;83.00;;;;;;5063540;28;20025;-35
2021/04/04 01:33:37;;;;;;;16.75;3.65;;;7.10;83.00;;;;;;5062733;28;20029;-38
2021/04/04 01:36:07;;;;;;;12.30;3.40;;;7.10;83.10;;;;;;5063397;28;20024;-37
2021/04/04 01:38:39;;;;;;;14.23;3.70;;;7.10;83.10;;;;;;5063609;28;20056;-39
2021/04/04 01:41:24;;;;;;;10.52;3.28;;;7.10;83.10;;;;;;5062407;28;20129;-40
2021/04/04 01:43:51;;;;;;;15.02;3.00;;;7.10;83.20;;;;;;5063486;28;20458;-36
2021/04/04 01:46:19;;;;;;;9.43;2.67;;;7.10;83.10;;;;;;5062827;28;20459;-37
2021/04/04 01:48:44;;;;;;;12.15;3.33;;;7.10;83.20;;;;;;5063348;28;20028;-38
2021/04/04 01:51:12;;;;;;;10.13;3.95;;;7.10;83.20;;;;;;5063003;28;20039;-36
2021/04/04 01:53:41;;;;;;;9.98;3.55;;;7.10;83.80;;;;;;5063232;28;20730;-36
2021/04/04 01:56:06;;;;;;;12.88;2.97;;;7.10;83.20;;;;;;5062633;28;20039;-38
2021/04/04 01:58:33;;;;;;;8.55;2.70;;;7.10;83.30;;;;;;5063389;28;20037;-35
2021/04/04 02:00:59;;;;;;;11.77;3.15;;;7.10;83.30;;;;;;5062840;28;20081;-37
2021/04/04 02:03:25;;;;;;;13.45;3.55;;;7.10;83.30;;;;;;5064637;28;20394;-38
2021/04/04 02:05:52;;;;;;;11.55;2.95;;;7.10;84.20;;;;;;5066388;28;20104;-37
2021/04/04 02:08:18;;;;;;;9.23;2.70;;;7.00;83.50;;;;;;5066918;28;20527;-36
2021/04/04 02:10:44;;;;;;;11.70;2.97;;;7.00;83.60;;;;;;5066081;28;20047;-35
2021/04/04 02:13:11;;;;;;;11.60;2.28;;;7.00;83.90;;;;;;5066288;28;20366;-36
2021/04/04 02:15:38;;;;;;;7.00;2.25;;;7.00;83.80;;;;;;5065843;28;20436;-36
2021/04/04 02:18:07;;;;;;;5.82;2.10;;;7.00;83.80;;;;;;5066891;28;20443;-35
2021/04/04 02:20:33;;;;;;;7.50;2.42;;;7.00;83.90;;;;;;5066168;28;20093;-34
2021/04/04 02:23:04;;;;;;;9.02;2.45;;;7.00;83.90;;;;;;5066118;28;20032;-39
2021/04/04 02:25:29;;;;;;;9.85;2.00;;;7.00;83.80;;;;;;5066342;28;20452;-35
2021/04/04 02:28:00;;;;;;;6.00;1.90;;;7.10;83.80;;;;;;5066377;28;20046;-38
2021/04/04 02:30:27;;;;;;;6.20;1.90;;;7.10;83.80;;;;;;5065833;28;20025;-37
2021/04/04 02:33:02;;;;;;;10.43;2.50;;;7.10;83.70;;;;;;5066146;28;20096;-37
2021/04/04 02:35:37;;;;;;;8.95;2.50;;;7.10;84.00;;;;;;5066488;28;20068;-36
2021/04/04 02:38:21;;;;;;;9.85;2.05;;;7.10;83.90;;;;;;5065350;28;20526;-39
2021/04/04 02:40:48;;;;;;;9.40;2.08;;;7.10;83.90;;;;;;5066275;28;20024;-38
2021/04/04 02:43:29;;;;;;;7.93;2.55;;;7.10;84.00;;;;;;5065265;28;20035;-37
2021/04/04 02:45:56;;;;;;;10.02;2.40;;;7.10;84.20;;;;;;5065615;28;20035;-39
2021/04/04 02:48:34;;;;;;;7.85;2.90;;;7.10;84.10;;;;;;5066557;28;20092;-39
2021/04/04 02:51:07;;;;;;;8.23;2.28;;;7.10;84.20;;;;;;5066323;28;20032;-38
2021/04/04 02:53:41;;;;;;;8.18;1.98;;;7.10;84.20;;;;;;5065812;28;20020;-43
2021/04/04 02:56:08;;;;;;;10.98;2.20;;;7.20;84.20;;;;;;5066013;28;20060;-39
2021/04/04 02:58:35;;;;;;;11.43;2.55;;;7.20;84.30;;;;;;5065146;28;20037;-39
2021/04/04 03:01:01;;;;;;;9.35;2.70;;;7.10;84.10;;;;;;5066060;28;20173;-38
2021/04/04 03:03:30;;;;;;;8.73;2.60;;;7.10;84.20;;;;;;5065609;28;20082;-38
2021/04/04 03:05:57;;;;;;;8.57;2.40;;;7.10;84.60;;;;;;5045386;28;20021;-35
2021/04/04 03:08:24;;;;;;;9.55;2.03;;;7.10;84.60;;;;;;5060516;28;20402;-38
2021/04/04 03:10:51;;;;;;;8.73;2.40;;;7.10;84.60;;;;;;5065139;28;20081;-40
2021/04/04 03:13:22;;;;;;;11.23;2.40;;;7.10;84.60;;;;;;5065318;28;20028;-40
2021/04/04 03:15:51;;;;;;;8.07;2.05;;;7.10;85.00;;;;;;5065456;28;20444;-39
2021/04/04 03:18:19;;;;;;;11.73;2.25;;;7.10;84.80;;;;;;5065627;28;20107;-39
2021/04/04 03:20:46;;;;;;;9.93;2.72;;;7.10;84.80;;;;;;5065204;28;20056;-39
2021/04/04 03:23:17;;;;;;;12.75;2.30;;;7.10;84.90;;;;;;5065386;28;20024;-36
2021/04/04 03:25:49;;;;;;;11.02;2.67;;;7.10;84.90;;;;;;5065527;28;20120;-35
2021/04/04 03:28:17;;;;;;;12.32;2.72;;;7.10;84.90;;;;;;5065834;28;20020;-36
2021/04/04 03:30:45;;;;;;;11.18;2.60;;;7.10;84.90;;;;;;5065102;28;20029;-38
2021/04/04 03:33:17;;;;;;;7.43;2.47;;;7.10;84.90;;;;;;5064735;28;20086;-38
2021/04/04 03:35:45;;;;;;;8.95;2.13;;;7.10;84.90;;;;;;5065305;28;20063;-43
2021/04/04 03:38:12;;;;;;;7.88;2.60;;;7.10;85.00;;;;;;5064820;28;20020;-37
2021/04/04 03:40:38;;;;;;;10.68;2.58;;;7.10;85.00;;;;;;5064747;28;20047;-37
2021/04/04 03:43:15;;;;;;;9.82;2.55;;;7.10;85.00;;;;;;5064554;28;20036;-38
2021/04/04 03:45:41;;;;;;;13.02;2.70;;;7.10;85.10;;;;;;5064782;28;20127;-36
2021/04/04 03:48:08;;;;;;;8.77;2.20;;;7.00;85.20;;;;;;5064414;28;20032;-37
2021/04/04 03:50:38;;;;;;;6.25;2.40;;;7.00;85.10;;;;;;5064415;28;20020;-37
2021/04/04 03:53:04;;;;;;;10.77;2.70;;;7.00;85.20;;;;;;5064946;28;20089;-39
2021/04/04 03:55:32;;;;;;;10.85;2.67;;;7.10;85.40;;;;;;5064064;28;20028;-36
2021/04/04 03:57:59;;;;;;;5.88;1.90;;;7.00;85.40;;;;;;5064485;28;20053;-38
2021/04/04 04:00:28;;;;;;;12.88;2.50;;;7.00;85.40;;;;;;5064160;28;20027;-38
2021/04/04 04:02:55;;;;;;;12.38;2.08;;;7.00;85.50;;;;;;5064365;28;20036;-36
2021/04/04 04:05:23;;;;;;;15.73;2.60;;;7.00;85.60;;;;;;5064511;28;20025;-36
2021/04/04 04:07:50;;;;;;;8.35;2.03;;;7.00;85.80;;;;;;5064493;28;20048;-37
2021/04/04 04:10:17;;;;;;;6.25;2.10;;;7.00;85.80;;;;;;5063190;28;20056;-38
2021/04/04 04:12:45;;;;;;;12.80;2.50;;;7.00;85.80;;;;;;5064588;28;20116;-40
2021/04/04 04:15:15;;;;;;;10.63;2.40;;;7.00;85.90;;;;;;5063745;28;20028;-34
2021/04/04 04:17:43;;;;;;;7.32;2.70;;;6.90;86.00;;;;;;5062373;28;20118;-36
2021/04/04 04:20:10;;;;;;;12.60;2.67;;;6.90;86.00;;;;;;5064312;28;20391;-34
2021/04/04 04:22:38;;;;;;;7.18;1.83;;;6.90;86.10;;;;;;5063401;28;20154;-35
2021/04/04 04:25:04;;;;;;;6.85;2.67;;;6.90;86.10;;;;;;5063912;28;20035;-33
2021/04/04 04:27:31;;;;;;;5.15;1.98;;;6.90;86.20;;;;;;5064488;28;20020;-36
2021/04/04 04:29:59;;;;;;;6.50;1.90;;;6.90;86.10;;;;;;5063497;28;20024;-39
2021/04/04 04:32:26;;;;;;;10.18;2.40;;;6.90;86.10;;;;;;5063972;28;20039;-39
2021/04/04 04:34:54;;;;;;;8.93;1.98;;;6.90;86.10;;;;;;5063808;28;20034;-33
2021/04/04 04:37:20;;;;;;;5.93;2.08;;;6.90;86.10;;;;;;5063891;28;20036;-37
2021/04/04 04:39:47;;;;;;;6.97;1.70;;;6.90;86.10;;;;;;5063950;28;20451;-36
2021/04/04 04:42:15;;;;;;;10.38;2.17;;;6.90;86.10;;;;;;5063926;28;20135;-38
2021/04/04 04:44:44;;;;;;;8.43;1.50;;;7.00;86.10;;;;;;5063656;28;20033;-36
2021/04/04 04:47:13;;;;;;;7.85;2.25;;;7.00;86.10;;;;;;5064135;28;20360;-37
2021/04/04 04:49:43;;;;;;;9.40;2.28;;;7.00;86.10;;;;;;5063795;28;20036;-32
2021/04/04 04:52:09;;;;;;;12.73;2.88;;;7.00;86.10;;;;;;5063045;28;20035;-36
2021/04/04 04:54:34;;;;;;;9.98;2.00;;;7.00;86.20;;;;;;5063631;28;20013;-37
2021/04/04 04:57:01;;;;;;;5.93;1.88;;;7.00;86.20;;;;;;5063602;28;20123;-34
2021/04/04 04:59:28;;;;;;;6.03;1.80;;;7.00;86.20;;;;;;5063134;28;20029;-36
2021/04/04 05:01:53;;;;;;;6.15;1.90;;;6.90;86.20;;;;;;5063306;28;20260;-38
2021/04/04 05:04:19;;;;;;;4.15;1.52;;;7.00;86.30;;;;;;5064194;28;20436;-38
2021/04/04 05:06:47;;;;;;;5.57;1.23;;;7.00;86.40;;;;;;5063575;28;20196;-33
2021/04/04 05:09:13;;;;;;;4.75;1.23;;;7.00;86.40;;;;;;5063751;28;20055;-37
2021/04/04 05:11:45;;;;;;;7.72;1.83;;;7.00;86.40;;;;;;5063223;28;20119;-37
2021/04/04 05:14:14;;;;;;;7.20;1.70;;;7.00;86.40;;;;;;5063634;28;20031;-36
2021/04/04 05:16:41;;;;;;;6.38;1.77;;;7.00;86.40;;;;;;5063166;28;20270;-35
2021/04/04 05:19:08;;;;;;;8.75;1.83;;;7.00;86.40;;;;;;5063133;28;20029;-36
2021/04/04 05:21:34;;;;;;;5.90;1.48;;;7.00;86.40;;;;;;5063047;28;20028;-36
2021/04/04 05:24:01;;;;;;;4.88;1.42;;;7.00;86.40;;;;;;5063443;28;20036;-40
2021/04/04 05:26:29;;;;;;;9.13;2.13;;;7.10;86.50;;;;;;5063552;28;20637;-37
2021/04/04 05:28:55;;;;;;;7.60;1.85;;;7.00;86.80;;;;;;5063384;28;20143;-35
2021/04/04 05:31:21;;;;;;;3.05;1.20;;;7.00;86.70;;;;;;5063643;28;20135;-37
2021/04/04 05:33:47;;;;;;;7.25;1.75;;;7.00;86.80;;;;;;5062501;28;20498;-37
2021/04/04 05:36:16;;;;;;;8.13;1.83;;;7.00;86.80;;;;;;5063594;28;20029;-35
2021/04/04 05:38:41;;;;;;;3.63;1.45;;;7.00;86.90;;;;;;5065765;28;20048;-37
2021/04/04 05:41:07;;;;;;;4.20;1.20;;;7.00;86.90;;;;;;5066568;28;20032;-35
2021/04/04 05:43:41;;;;;;;7.63;1.33;;;7.00;87.00;;;;;;5066955;28;20036;-37
2021/04/04 05:46:26;;;;;;;6.32;2.15;;;7.00;86.90;;;;;;5067005;28;20055;-36
2021/04/04 05:49:05;;;;;;;7.20;1.70;;;7.00;86.90;;;;;;5066270;28;20074;-38
2021/04/04 05:51:53;;;;;;;10.00;2.05;;;7.00;86.90;;;;;;5047410;28;20021;-34
2021/04/04 05:54:31;;;;;;;9.80;2.42;;;7.00;87.40;;;;;;5064420;28;20434;-37
2021/04/04 05:57:02;;;;;;;6.70;1.70;;;7.00;87.40;;;;;;5067200;28;20048;-32
2021/04/04 05:59:35;;;;;;;5.82;1.60;;;6.90;87.20;;;;;;5066745;28;20029;-38
2021/04/04 06:02:03;;;;;;;9.50;1.75;;;7.00;87.30;;;;;;5066382;28;20143;-37
2021/04/04 06:04:57;;;;;;;5.93;1.42;;;7.00;87.20;;;;;;5066963;28;20043;-38
2021/04/04 06:07:44;;;;;;;6.32;1.50;;;7.00;87.20;;;;;;5047106;28;20132;-39
2021/04/04 06:10:15;;;;;;;7.20;1.70;;;7.10;87.20;;;;;;5066567;28;20040;-41
2021/04/04 06:13:05;;;;;;;6.05;1.55;;;7.10;87.10;;;;;;5066424;28;20139;-38
2021/04/04 06:15:52;;;;;;;5.25;1.75;;;7.10;87.10;;;;;;5062507;28;20075;-38
2021/04/04 06:18:39;;;;;;;7.15;1.70;;;7.20;87.20;;;;;;5066997;28;20123;-41
2021/04/04 06:21:21;;;;;;;5.03;1.40;;;7.10;87.10;;;;;;5066548;28;20024;-39
2021/04/04 06:23:59;;;;;;;5.10;1.73;;;7.20;87.10;;;;;;5065681;28;20032;-39
2021/04/04 06:26:40;;;;;;;9.10;1.83;;;7.20;87.00;;;;;;5056175;28;20128;-38
2021/04/04 06:29:25;;;;;;;3.90;1.40;;;7.20;87.00;;;;;;5066114;28;20088;-35
2021/04/04 06:32:05;;;;;;;5.95;1.60;;;7.20;87.00;;;;;;5066815;28;20059;-39
2021/04/04 06:34:43;;;;;;;4.35;1.73;;;7.20;87.10;;;;;;5066197;28;20025;-36
2021/04/04 06:37:43;;;;;;;5.50;1.73;;;7.20;87.20;;;;;;5066021;28;20119;-36
2021/04/04 06:40:27;;;;;;;5.25;1.60;;;7.30;87.20;;;;;;5066185;28;20069;-41
2021/04/04 06:42:56;;;;;;;7.38;1.70;;;7.30;87.20;;;;;;5065968;28;20127;-39
2021/04/04 06:45:21;;;;;;;10.88;2.05;;;7.30;87.20;;;;;;5066280;28;20562;-38
2021/04/04 06:48:11;;;;;;;7.72;2.10;;;7.30;87.20;;;;;;5065680;28;20127;-37
2021/04/04 06:50:46;;;;;;;7.68;1.60;;;7.30;87.30;;;;;;5066214;28;20040;-39
2021/04/04 06:53:36;;;;;;;7.38;2.65;;;7.30;87.20;;;;;;5066428;28;20037;-38
2021/04/04 06:56:29;;;;;;;5.05;1.30;;;7.30;87.20;;;;;;5065841;28;20799;-37
2021/04/04 06:59:05;;;;;;;8.75;1.70;;;7.40;87.20;;;;;;5045931;28;20017;-37
2021/04/04 07:02:00;;;;;;;10.02;1.60;;;7.40;87.10;;;;;;5063327;28;20758;-36
2021/04/04 07:04:45;;;;;;;5.28;1.40;;;7.50;87.00;;;;;;5066185;28;20032;-39
2021/04/04 07:07:35;;;;;;;3.88;1.42;;;7.50;86.90;;;;;;5065711;28;20107;-35
2021/04/04 07:10:22;;;;;;;5.65;1.95;;;7.50;86.80;;;;;;5065425;28;20048;-37
2021/04/04 07:13:34;;;;;;;5.32;1.55;;;7.60;86.80;;;;;;5064772;28;20116;-37
2021/04/04 07:16:24;;;;;;;4.93;1.40;;;7.60;86.80;;;;;;5055301;28;20123;-36
2021/04/04 07:19:08;;;;;;;8.07;1.67;;;7.60;86.70;;;;;;5065123;28;20036;-39
2021/04/04 07:22:05;;;;;;;5.75;1.50;;;7.70;86.70;;;;;;5065509;28;20140;-33
2021/04/04 07:25:01;;;;;;;7.82;2.50;;;7.70;86.90;;;;;;5066208;28;20029;-40
2021/04/04 07:27:41;;;;;;;9.32;2.83;;;7.70;86.90;;;;;;5066258;28;20028;-40
2021/04/04 07:30:29;;;;;;;8.10;2.42;;;7.70;87.60;;;;;;5066509;28;20032;-35
2021/04/04 07:33:15;;;;;;;11.15;2.60;;;7.60;87.80;;;;;;5065065;28;20021;-41
2021/04/04 07:36:21;;;;;;;14.27;2.53;;;7.60;87.90;;;;;;5065783;28;20107;-37
2021/04/04 07:39:17;;;;;;;12.52;2.60;;;7.70;88.70;;;;;;5054819;28;20060;-39
2021/04/04 07:42:00;;;;;;;8.45;2.10;;;7.60;88.70;;;;;;5064411;28;20476;-33
2021/04/04 07:44:45;;;;;;;;;;;7.60;88.60;;;;;;5063574;28;20044;-41
2021/04/04 07:47:38;;;;;;;6.45;2.53;;;7.60;88.70;;;;;;5064062;28;19912;-42
2021/04/04 07:50:08;;;;;;;5.40;1.73;;;7.70;88.50;;;;;;5059741;28;20059;-36
2021/04/04 07:52:52;;;;;;;5.60;1.75;;;7.70;88.40;;;;;;5064750;28;20096;-36
2021/04/04 07:55:23;;;;;;;5.20;1.95;;;7.70;88.40;;;;;;5064730;28;20024;-38
2021/04/04 07:58:31;;;;;;;6.95;1.95;;;7.80;88.60;;;;;;5064359;28;20025;-40
2021/04/04 08:01:02;;;;;;;6.80;2.58;;;7.70;88.70;;;;;;5042239;28;20082;-37
2021/04/04 08:03:37;;;;;;;7.20;2.38;;;7.60;89.50;;;;;;5064701;28;20175;-39
2021/04/04 08:06:14;;;;;;;8.20;2.30;;;7.50;89.30;;;;;;5044065;28;20086;-38
2021/04/04 08:08:46;;;;;;;7.45;2.47;;;7.50;90.20;;;;;;5060343;28;20032;-40
2021/04/04 08:11:27;;;;;;;7.15;2.30;;;7.50;89.80;;;;;;5044515;28;20049;-36
2021/04/04 08:14:07;;;;;;;10.88;2.85;;;7.50;90.10;;;;;;5061101;28;20125;-37
2021/04/04 08:16:59;;;;;;;7.53;2.55;;;7.50;90.20;;;;;;5060521;28;20091;-37
2021/04/04 08:19:26;;;;;;;10.48;3.17;;;7.50;90.30;;;;;;5062083;28;20033;-38
2021/04/04 08:22:08;;;;;;;7.80;2.60;;;7.60;90.50;;;;;;5064298;28;20036;-38
2021/04/04 08:24:46;;;;;;;5.57;2.40;;;7.60;90.80;;;;;;5063872;28;20123;-38
2021/04/04 08:27:38;;;;;;;10.07;2.53;;;7.50;90.60;;;;;;5064473;28;20032;-38
2021/04/04 08:30:17;;;;;;;5.18;2.45;;;7.50;91.10;;;;;;5063324;28;20043;-35
2021/04/04 08:32:55;;;;;;;7.95;2.20;;;7.60;90.80;;;;;;5064153;28;20046;-35
2021/04/04 08:35:27;;;;;;;9.38;2.70;;;7.60;90.80;;;;;;5060734;28;20546;-37
2021/04/04 08:38:21;;;;;;;6.07;2.73;;;7.70;90.80;;;;;;5063483;28;20028;-36
2021/04/04 08:40:48;;;;;;;6.28;3.35;;;7.60;90.80;;;;;;5063008;28;20459;-37
2021/04/04 08:43:15;;;;;;;5.47;3.25;;;7.60;90.90;;;;;;5063098;28;20044;-37
2021/04/04 08:46:06;;;;;;;8.18;3.17;;;7.50;91.00;;;;;;5063065;28;20023;-39
2021/04/04 08:48:36;;;;;;;8.38;3.30;;;7.50;90.90;;;;;;5062911;28;20024;-38
2021/04/04 08:51:09;;;;;;;7.03;3.03;;;7.50;91.00;;;;;;5062955;28;20031;-38
2021/04/04 08:53:41;;;;;;;8.30;3.40;;;7.50;90.90;;;;;;5061113;28;20028;-35
2021/04/04 08:56:07;;;;;;;8.20;3.63;;;7.50;91.00;;;;;;5063185;28;20464;-36
2021/04/04 08:58:41;;;;;;;11.25;3.83;;;7.40;90.80;;;;;;5063434;28;20078;-35
2021/04/04 09:01:11;;;;;;;8.07;4.25;;;7.40;91.20;;;;;;5059968;28;20101;-39
2021/04/04 09:03:38;;;;;;;7.47;3.67;;;7.40;91.20;;;;;;5062719;28;20487;-38
2021/04/04 09:06:06;;;;;;;7.10;3.38;;;7.40;91.30;;;;;;5062212;28;20016;-39
2021/04/04 09:08:33;;;;;;;4.65;2.83;;;7.50;91.10;;;;;;5063461;28;20445;-37
2021/04/04 09:11:00;;;;;;;5.18;2.95;;;7.60;91.00;;;;;;5061214;28;20056;-37
2021/04/04 09:13:35;;;;;;;3.75;2.95;;;7.70;90.90;;;;;;5067488;28;20180;-39
2021/04/04 09:16:07;;;;;;;4.57;2.53;;;7.90;90.70;;;;;;5064461;28;20027;-37
2021/04/04 09:18:33;;;;;;;5.68;3.03;;;8.00;90.40;;;;;;5067157;28;20116;-34
2021/04/04 09:21:05;;;;;;;5.03;2.83;;;8.00;89.60;;;;;;5066842;28;20025;-36
2021/04/04 09:23:32;;;;;;;5.57;2.70;;;8.00;89.90;;;;;;5066443;28;20079;-37
2021/04/04 09:26:05;;;;;;;3.55;2.50;;;8.10;90.00;;;;;;5063913;28;20101;-36
2021/04/04 09:28:37;;;;;;;4.03;2.78;;;8.10;89.90;;;;;;5082837;28;20032;-37
2021/04/04 09:31:07;;;;;;;5.05;2.58;;;8.20;89.70;;;;;;5074283;28;20082;-37
2021/04/04 09:33:37;;;;;;;4.90;2.72;;;8.20;89.60;;;;;;5066783;28;20048;-38
2021/04/04 09:36:05;;;;;;;4.25;2.50;;;8.20;89.50;;;;;;5066855;28;20020;-36
2021/04/04 09:38:36;;;;;;;4.43;3.08;;;8.20;89.30;;;;;;5067737;28;20090;-38
2021/04/04 09:41:02;;;;;;;4.50;2.65;;;8.20;88.60;;;;;;5067296;28;20538;-35
2021/04/04 09:43:28;;;;;;;5.05;2.78;;;8.20;88.60;;;;;;5065724;28;20127;-38
2021/04/04 09:46:06;;;;;;;5.78;3.50;;;8.30;89.10;;;;;;5066804;28;20044;-37
2021/04/04 09:48:38;;;;;;;6.72;2.60;;;8.20;88.50;;;;;;5065678;28;20060;-36
2021/04/04 09:51:05;;;;;;;5.00;2.63;;;8.30;87.90;;;;;;5066329;28;20177;-37
2021/04/04 09:53:37;;;;;;;5.70;3.00;;;8.30;87.50;;;;;;5067016;28;20017;-38
2021/04/04 09:56:13;;;;;;;6.97;2.70;;;8.20;87.20;;;;;;5067008;28;20128;-36
2021/04/04 09:58:47;;;;;;;4.88;2.70;;;8.20;87.30;;;;;;5067314;28;20357;-37
2021/04/04 10:01:14;;;;;;;5.05;2.67;;;8.20;87.10;;;;;;5065593;28;20514;-33
2021/04/04 10:03:40;;;;;;;4.43;2.30;;;8.30;87.00;;;;;;5066561;28;20124;-36
2021/04/04 10:06:12;;;;;;;4.43;2.35;;;8.30;87.50;;;;;;5066893;28;20777;-34
2021/04/04 10:08:52;;;;;;;6.22;2.20;;;8.40;86.20;;;;;;5065740;28;20035;-37
2021/04/04 10:11:19;;;;;;;3.30;2.13;;;8.40;86.10;;;;;;5067677;28;20036;-39
2021/04/04 10:13:44;;;;;;;3.63;2.40;;;8.40;85.70;;;;;;5066868;28;20032;-35
2021/04/04 10:16:23;;;;;;;4.60;2.35;;;8.40;85.80;;;;;;5065813;28;20430;-38
2021/04/04 10:19:08;;;;;;;3.70;1.90;;;8.50;85.30;;;;;;5065091;28;20024;-34
2021/04/04 10:21:53;;;;;;;2.83;2.20;;;8.50;85.60;;;;;;5065711;28;20032;-36
2021/04/04 10:24:33;;;;;;;3.78;1.90;;;8.60;85.00;;;;;;5057537;28;20017;-38
2021/04/04 10:27:29;;;;;;;3.33;1.85;;;8.70;85.40;;;;;;5066438;28;20029;-38
2021/04/04 10:30:05;;;;;;;3.05;2.20;;;8.80;85.10;;;;;;5066061;28;20047;-34
2021/04/04 10:32:31;;;;;;;4.45;3.10;;;8.90;84.80;;;;;;5066438;28;20087;-36
2021/04/04 10:34:57;;;;;;;4.45;3.00;;;9.00;84.20;;;;;;5065587;28;20480;-35
2021/04/04 10:37:25;;;;;;;4.85;3.38;;;9.00;84.30;;;;;;5066481;28;20019;-36
2021/04/04 10:40:03;;;;;;;3.25;2.33;;;9.10;83.70;;;;;;5066580;28;20358;-36
2021/04/04 10:42:30;;;;;;;5.07;3.03;;;9.20;82.60;;;;;;5065333;28;20029;-34
2021/04/04 10:45:19;;;;;;;3.13;2.20;;;9.10;81.20;;;;;;5061477;28;20017;-37
2021/04/04 10:47:45;;;;;;;5.20;1.80;;;9.10;82.20;;;;;;5064166;28;20021;-38
2021/04/04 10:50:15;;;;;;;3.40;2.03;;;9.10;82.50;;;;;;5053106;28;20051;-36
2021/04/04 10:52:44;;;;;;;6.40;2.20;;;9.10;82.70;;;;;;5065397;28;20028;-38
2021/04/04 10:55:11;;;;;;;3.97;1.88;;;9.20;81.80;;;;;;5065767;28;20145;-38
2021/04/04 10:57:38;;;;;;;3.88;2.22;;;9.30;82.10;;;;;;5064695;28;20024;-36
2021/04/04 11:00:09;;;;;;;5.15;2.20;;;9.30;81.60;;;;;;5064994;28;20115;-39
2021/04/04 11:02:36;;;;;;;5.32;2.35;;;9.20;81.60;;;;;;5065835;28;20036;-38
2021/04/04 11:05:07;;;;;;;3.45;2.20;;;9.20;81.80;;;;;;5061737;28;20017;-36
2021/04/04 11:07:34;;;;;;;5.63;2.65;;;9.20;81.60;;;;;;5062857;28;20150;-36
2021/04/04 11:10:04;;;;;;;4.10;2.63;;;9.20;81.70;;;;;;5064783;28;20085;-34
2021/04/04 11:12:32;;;;;;;4.65;2.45;;;9.20;81.70;;;;;;5065262;28;20024;-38
2021/04/04 11:15:01;;;;;;;6.00;2.53;;;9.30;81.70;;;;;;5065536;28;20036;-36
2021/04/04 11:17:27;;;;;;;6.25;2.20;;;9.30;81.90;;;;;;5064831;28;20033;-37
2021/04/04 11:19:53;;;;;;;6.90;2.42;;;9.40;81.80;;;;;;5065098;28;20017;-36
2021/04/04 11:22:21;;;;;;;6.32;2.67;;;9.50;81.40;;;;;;5065789;28;20040;-37
2021/04/04 11:25:07;;;;;;;5.75;2.60;;;9.60;81.10;;;;;;5063550;28;20651;-36
2021/04/04 11:27:43;;;;;;;8.48;3.92;;;9.60;80.10;;;;;;5065402;28;20119;-37
2021/04/04 11:30:23;;;;;;;6.63;3.33;;;9.50;78.60;;;;;;5065571;28;20395;-39
2021/04/04 11:33:19;;;;;;;4.43;2.40;;;9.40;79.50;;;;;;5064814;28;20033;-35
2021/04/04 11:36:06;;;;;;;6.30;2.50;;;9.40;80.30;;;;;;5065238;28;20059;-41
2021/04/04 11:38:51;;;;;;;5.45;2.38;;;9.50;80.30;;;;;;5065128;28;20020;-37
2021/04/04 11:41:27;;;;;;;10.02;3.28;;;9.60;80.00;;;;;;5064775;28;20039;-35
2021/04/04 11:44:13;;;;;;;7.95;3.80;;;9.70;80.10;;;;;;5067420;28;20031;-35
2021/04/04 11:46:43;;;;;;;5.63;2.90;;;9.80;79.60;;;;;;5064477;28;20020;-41
2021/04/04 11:49:35;;;;;;;7.20;2.92;;;9.90;79.40;;;;;;5065309;28;20063;-37
2021/04/04 11:52:23;;;;;;;7.15;3.50;;;10.00;79.20;;;;;;5064104;28;20257;-36
2021/04/04 11:54:54;;;;;;;7.75;3.60;;;10.00;77.50;;;;;;5064613;28;20043;-36
2021/04/04 11:57:22;;;;;;;6.72;3.45;;;10.00;78.40;;;;;;5061487;28;20020;-39
2021/04/04 11:59:51;;;;;;;7.07;3.30;;;10.00;78.10;;;;;;5063187;28;20025;-37
2021/04/04 12:02:26;;;;;;;7.15;3.60;;;10.00;77.90;;;;;;5065157;28;20029;-38
2021/04/04 12:05:08;;;;;;;6.00;3.15;;;10.10;77.90;;;;;;5065395;28;20059;-39
2021/04/04 12:07:51;;;;;;;9.02;2.88;;;10.10;77.90;;;;;;5064556;28;20178;-38
2021/04/04 12:10:20;;;;;;;9.32;4.18;;;10.20;78.10;;;;;;5062805;28;20048;-33
2021/04/04 12:12:46;;;;;;;8.63;4.22;;;10.30;77.90;;;;;;5064360;28;20028;-38
2021/04/04 12:15:14;;;;;;;7.70;3.80;;;10.40;77.80;;;;;;5064656;28;20066;-35
2021/04/04 12:17:45;;;;;;;8.70;4.07;;;10.50;78.00;;;;;;5064907;28;20021;-35
2021/04/04 12:20:11;;;;;;;6.32;4.05;;;10.50;77.50;;;;;;5064675;28;20040;-36
2021/04/04 12:22:44;;;;;;;8.88;4.32;;;10.60;77.30;;;;;;5064365;28;20049;-37
2021/04/04 12:25:12;;;;;;;10.35;4.15;;;10.70;77.40;;;;;;5069183;28;20035;-36
2021/04/04 12:27:41;;;;;;;9.00;5.20;;;10.80;77.40;;;;;;5064533;28;20093;-38
2021/04/04 12:30:14;;;;;;;7.47;4.07;;;10.80;75.00;;;;;;5065240;28;20174;-39
2021/04/04 12:32:40;;;;;;;11.73;4.50;;;10.70;76.20;;;;;;5065521;28;20587;-38
2021/04/04 12:35:10;;;;;;;7.32;4.05;;;10.70;76.50;;;;;;5084332;28;20028;-38
2021/04/04 12:37:38;;;;;;;6.80;3.75;;;10.70;76.00;;;;;;5068127;28;20070;-38
2021/04/04 12:40:07;;;;;;;8.32;4.60;;;10.70;76.20;;;;;;5044635;28;20019;-39
2021/04/04 12:42:35;;;;;;;12.05;5.90;;;10.70;76.20;;;;;;5058501;28;20062;-39
2021/04/04 12:45:10;;;;;;;9.82;4.82;;;10.70;74.10;;;;;;5064856;28;20024;-37
2021/04/04 12:47:38;;;;;;;9.85;4.50;;;10.60;74.60;;;;;;5064204;28;20044;-36
2021/04/04 12:50:07;;;;;;;6.60;4.40;;;10.60;75.40;;;;;;5063298;28;20025;-35
2021/04/04 12:52:48;;;;;;;7.97;3.60;;;10.70;76.00;;;;;;5064550;28;20009;-36
2021/04/04 12:55:18;;;;;;;6.75;3.33;;;10.80;76.00;;;;;;5064242;28;20024;-40
2021/04/04 12:57:54;;;;;;;9.27;5.05;;;11.00;75.90;;;;;;5063490;28;20033;-38
2021/04/04 13:00:22;;;;;;;6.65;4.00;;;11.10;75.90;;;;;;5064915;28;20059;-37
2021/04/04 13:02:59;;;;;;;10.40;4.47;;;11.20;75.80;;;;;;5063248;28;20047;-40
2021/04/04 13:05:26;;;;;;;7.85;4.22;;;11.20;75.10;;;;;;5064348;28;20025;-37
2021/04/04 13:07:53;;;;;;;8.65;3.85;;;11.20;75.40;;;;;;5062548;28;20025;-37
2021/04/04 13:10:19;;;;;;;7.90;3.75;;;11.20;75.70;;;;;;5063584;28;20489;-37
2021/04/04 13:12:45;;;;;;;9.77;4.30;;;11.30;75.90;;;;;;5063659;28;20036;-38
2021/04/04 13:15:22;;;;;;;9.52;4.55;;;11.30;74.60;;;;;;5064132;28;20333;-37
2021/04/04 13:17:47;;;;;;;9.52;4.10;;;11.30;75.10;;;;;;5063036;28;20032;-37
2021/04/04 13:20:14;;;;;;;5.32;3.58;;;11.30;75.20;;;;;;5064275;28;20017;-38
2021/04/04 13:22:39;;;;;;;10.15;4.47;;;11.50;76.00;;;;;;5064146;28;20028;-35